Time;durP1;ratioP1;P1;durP2;ratioP2;P2;SDS_P1;SDS_P2;PMS_P1;PMS_P2;Temp;Humidity;BMP_temperature;BMP_pressure;BME280_temperature;BME280_humidity;BME280_pressure;Samples;Min_cycle;Max_cycle;Signal;HPM_P1;HPM_P2
2022/05/16 00:00:16;;;;;;;10.85;4.28;;;21.10;46.70;;;15.48;67.18;101138.66;173358;28;970;-73
2022/05/16 00:00:26;;;;;;;10.05;4.14;;;21.10;46.70;;;15.47;66.85;101136.97;173998;28;1242;-73
2022/05/16 00:00:32;;;;;;;9.83;4.11;;;21.10;46.80;;;15.47;66.54;101131.69;173990;28;1239;-73
2022/05/16 00:00:38;;;;;;;9.57;4.13;;;21.10;46.80;;;15.47;66.57;101132.56;174060;28;970;-73
2022/05/16 00:00:44;;;;;;;9.50;4.10;;;21.10;46.80;;;15.49;66.71;101145.59;174006;28;938;-73
2022/05/16 00:00:50;;;;;;;9.20;4.00;;;21.10;46.90;;;15.50;66.79;101136.78;173940;28;974;-73
2022/05/16 00:00:56;;;;;;;9.15;4.03;;;21.10;46.90;;;15.49;66.74;101135.06;173932;28;923;-73
2022/05/16 00:01:04;;;;;;;8.93;4.00;;;21.10;46.90;;;15.50;67.07;101136.78;174056;28;851;-73
2022/05/16 00:01:10;;;;;;;9.11;3.96;;;21.10;46.90;;;15.49;66.83;101129.81;174050;28;1047;-73
2022/05/16 00:01:16;;;;;;;10.82;4.00;;;21.10;47.00;;;15.49;66.78;101130.66;174011;28;1004;-73
2022/05/16 00:01:21;;;;;;;11.57;4.00;;;21.10;47.00;;;15.50;66.99;101132.34;173246;28;1524;-73
2022/05/16 00:01:28;;;;;;;11.82;3.97;;;21.10;47.00;;;15.50;66.66;101131.53;173845;28;898;-73
2022/05/16 00:01:34;;;;;;;11.98;3.90;;;21.10;47.00;;;15.48;66.89;101134.25;174037;28;910;-73
2022/05/16 00:01:39;;;;;;;11.65;3.83;;;21.10;46.90;;;15.49;66.61;101129.81;173275;28;774;-73
2022/05/16 00:01:45;;;;;;;10.60;3.97;;;21.10;46.90;;;15.49;66.76;101129.81;173323;28;1041;-73
2022/05/16 00:01:51;;;;;;;10.05;4.00;;;21.10;46.90;;;15.49;66.48;101129.81;173360;28;855;-73
2022/05/16 00:02:01;;;;;;;10.13;4.13;;;21.10;46.90;;;15.49;66.73;101133.31;173338;28;1058;-73
2022/05/16 00:02:12;;;;;;;11.10;4.60;;;21.10;46.90;;;15.48;66.75;101134.25;173360;28;935;-73
2022/05/16 00:02:19;;;;;;;11.45;4.57;;;21.10;46.90;;;15.49;66.87;101129.81;172618;28;2202;-73
2022/05/16 00:02:25;;;;;;;12.26;4.78;;;21.10;46.90;;;15.48;66.84;101129.00;172646;28;919;-73
2022/05/16 00:02:31;;;;;;;12.60;4.75;;;21.10;46.90;;;15.50;66.81;101136.78;172757;28;1201;-73
2022/05/16 00:02:37;;;;;;;11.87;4.70;;;21.10;46.90;;;15.49;66.75;101129.81;173354;28;863;-73
2022/05/16 00:02:43;;;;;;;11.43;4.70;;;21.10;46.90;;;15.49;66.74;101135.06;172604;28;1004;-73
2022/05/16 00:02:49;;;;;;;11.13;4.53;;;21.10;47.00;;;15.48;66.89;101129.00;172323;28;891;-73
2022/05/16 00:03:01;;;;;;;10.18;4.25;;;21.10;47.00;;;15.48;66.71;101133.38;171981;28;844;-73
2022/05/16 00:03:07;;;;;;;9.06;4.04;;;21.10;47.00;;;15.48;66.77;101133.38;171998;28;1226;-73
2022/05/16 00:03:13;;;;;;;9.85;4.00;;;21.10;47.00;;;15.48;66.91;101129.00;171980;28;1077;-73
2022/05/16 00:03:19;;;;;;;10.65;4.13;;;21.10;47.00;;;15.48;67.04;101130.75;172100;28;900;-73
2022/05/16 00:03:26;;;;;;;11.02;4.30;;;21.10;47.00;;;15.49;66.96;101129.81;172651;28;942;-73
2022/05/16 00:03:32;;;;;;;11.80;4.28;;;21.10;47.00;;;15.47;66.97;101126.44;172662;28;1019;-73
2022/05/16 00:03:38;;;;;;;12.15;4.43;;;21.10;47.10;;;15.48;67.15;101134.25;173009;28;1029;-73
2022/05/16 00:03:44;;;;;;;12.18;4.50;;;21.10;47.10;;;15.48;66.92;101128.13;173325;28;1297;-73
2022/05/16 00:03:49;;;;;;;11.83;4.47;;;21.10;47.10;;;15.49;66.99;101129.81;173326;28;902;-73
2022/05/16 00:03:55;;;;;;;11.73;4.45;;;21.10;47.10;;;15.47;66.97;101123.81;173346;28;1089;-73
2022/05/16 00:04:01;;;;;;;12.50;4.50;;;21.10;47.20;;;15.47;67.00;101127.31;173314;28;1190;-73
2022/05/16 00:04:07;;;;;;;11.90;4.45;;;21.00;47.20;;;15.47;67.17;101122.03;173369;28;843;-73
2022/05/16 00:04:12;;;;;;;11.40;4.40;;;21.10;47.20;;;15.48;66.94;101128.13;173356;28;1037;-73
2022/05/16 00:04:18;;;;;;;11.02;4.35;;;21.10;47.20;;;15.47;67.37;101127.31;173327;28;1471;-73
2022/05/16 00:04:24;;;;;;;10.52;4.30;;;21.00;47.20;;;15.46;67.04;101128.22;173306;28;987;-73
2022/05/16 00:04:30;;;;;;;9.57;4.25;;;21.10;47.20;;;15.47;67.45;101129.06;173950;28;899;-73
2022/05/16 00:04:43;;;;;;;8.48;4.20;;;21.10;47.30;;;15.45;67.22;101129.16;174004;28;943;-73
2022/05/16 00:04:50;;;;;;;8.93;4.15;;;21.10;47.30;;;15.46;67.43;101125.59;174698;28;1208;-73
2022/05/16 00:04:56;;;;;;;9.47;4.40;;;21.00;47.30;;;15.45;67.29;101124.75;174735;28;942;-73
2022/05/16 00:05:03;;;;;;;10.63;4.50;;;21.00;47.30;;;15.45;67.15;101130.03;174686;28;1191;-73
2022/05/16 00:05:12;;;;;;;11.48;4.40;;;21.10;47.30;;;15.45;67.28;101124.75;173997;28;1208;-73
2022/05/16 00:05:19;;;;;;;11.58;4.37;;;21.00;47.30;;;15.42;67.76;101130.19;174348;28;951;-73
2022/05/16 00:05:25;;;;;;;11.93;4.30;;;21.00;47.30;;;15.27;68.14;101131.09;174753;28;890;-73
2022/05/16 00:05:32;;;;;;;10.88;4.06;;;21.10;47.30;;;15.15;68.40;101141.38;174692;28;1371;-73
2022/05/16 00:05:38;;;;;;;9.46;3.90;;;21.10;47.30;;;15.15;68.17;101127.38;174742;28;1072;-72
2022/05/16 00:05:44;;;;;;;9.23;3.90;;;21.00;47.30;;;15.18;68.33;101138.56;174747;28;1138;-73
2022/05/16 00:05:51;;;;;;;9.43;3.90;;;21.10;47.30;;;15.22;68.14;101130.50;173971;28;1497;-73
2022/05/16 00:05:57;;;;;;;10.50;4.13;;;21.10;47.30;;;15.25;67.82;101132.94;174059;28;938;-73
2022/05/16 00:06:04;;;;;;;11.57;4.32;;;21.10;47.30;;;15.28;67.96;101127.50;173989;28;1044;-73
2022/05/16 00:06:09;;;;;;;12.27;4.47;;;21.10;47.30;;;15.28;67.95;101128.38;174052;28;1069;-72
2022/05/16 00:06:15;;;;;;;12.80;4.68;;;21.10;47.20;;;15.30;67.74;101131.72;174046;28;1155;-72
2022/05/16 00:06:21;;;;;;;13.82;4.70;;;21.00;47.20;;;15.31;67.74;101129.97;174028;28;922;-72
2022/05/16 00:06:26;;;;;;;13.15;4.65;;;21.00;47.20;;;15.32;67.78;101129.03;173148;28;955;-73
2022/05/16 00:06:32;;;;;;;12.40;4.57;;;21.00;47.30;;;15.34;67.88;101131.56;172678;28;1377;-73
2022/05/16 00:06:38;;;;;;;12.18;4.60;;;21.00;47.30;;;15.33;67.87;101130.75;172692;28;899;-73
2022/05/16 00:06:44;;;;;;;11.65;4.53;;;21.00;47.30;;;15.34;67.73;101131.56;172668;28;929;-73
2022/05/16 00:06:50;;;;;;;9.88;4.43;;;21.00;47.30;;;15.33;67.97;101128.09;172658;28;983;-73
2022/05/16 00:06:56;;;;;;;9.52;4.38;;;21.00;47.30;;;15.34;67.59;101124.53;172640;28;931;-73
2022/05/16 00:07:02;;;;;;;9.23;4.40;;;21.00;47.30;;;15.34;67.48;101132.44;172506;28;1131;-72
2022/05/16 00:07:08;;;;;;;9.57;4.23;;;21.00;47.30;;;15.35;67.49;101134.09;173025;28;958;-73
2022/05/16 00:07:15;;;;;;;10.77;4.22;;;21.00;47.30;;;15.35;67.28;101130.63;173372;28;907;-73
2022/05/16 00:07:21;;;;;;;11.30;4.30;;;21.00;47.20;;;15.35;67.82;101134.09;173369;28;946;-73
2022/05/16 00:07:27;;;;;;;11.25;4.32;;;21.00;47.30;;;15.36;67.60;101130.53;173345;28;883;-73
2022/05/16 00:07:33;;;;;;;12.10;4.40;;;21.00;47.30;;;15.35;67.57;101134.09;173328;28;1060;-73
2022/05/16 00:07:39;;;;;;;12.80;4.47;;;21.00;47.30;;;15.35;67.46;101131.47;173382;28;1046;-73
2022/05/16 00:07:45;;;;;;;11.80;4.57;;;21.00;47.30;;;15.36;67.61;101133.16;173365;28;958;-73
2022/05/16 00:07:53;;;;;;;11.80;4.60;;;21.00;47.30;;;15.36;67.31;101125.28;174037;28;1238;-73
2022/05/16 00:08:00;;;;;;;12.38;4.63;;;21.00;47.30;;;15.37;67.75;101124.38;173987;28;1319;-73
2022/05/16 00:08:07;;;;;;;11.12;4.66;;;21.00;47.30;;;15.37;67.76;101129.63;173999;28;1069;-73
2022/05/16 00:08:12;;;;;;;10.87;4.63;;;21.00;47.30;;;15.35;67.70;101126.22;174050;28;1036;-73
2022/05/16 00:08:18;;;;;;;11.20;4.50;;;21.00;47.30;;;15.36;67.63;101129.72;174024;28;871;-73
2022/05/16 00:08:25;;;;;;;11.93;4.50;;;21.00;47.30;;;15.36;67.57;101130.53;174035;28;1025;-73
2022/05/16 00:08:31;;;;;;;11.03;4.37;;;21.00;47.40;;;15.36;67.66;101130.53;174083;28;949;-73
2022/05/16 00:08:37;;;;;;;11.43;4.33;;;21.00;47.30;;;15.36;67.57;101129.72;174083;28;879;-73
2022/05/16 00:08:43;;;;;;;11.23;4.28;;;21.00;47.40;;;15.35;67.71;101134.09;174071;28;1032;-73
2022/05/16 00:08:48;;;;;;;11.43;4.40;;;21.00;47.30;;;15.36;67.66;101133.16;174058;28;1020;-73
2022/05/16 00:08:55;;;;;;;10.53;4.43;;;21.00;47.40;;;15.35;67.65;101128.84;174086;28;914;-73
2022/05/16 00:09:00;;;;;;;13.06;4.60;;;21.00;47.40;;;15.35;67.68;101123.59;174066;28;1025;-73
2022/05/16 00:09:07;;;;;;;13.63;4.57;;;21.00;47.40;;;15.36;67.64;101127.91;174058;28;926;-73
2022/05/16 00:09:12;;;;;;;13.58;4.58;;;21.00;47.40;;;15.37;67.55;101136.66;174098;28;922;-73
2022/05/16 00:09:19;;;;;;;13.13;4.53;;;21.00;47.40;;;15.37;67.60;101124.38;174060;28;1233;-73
2022/05/16 00:09:24;;;;;;;13.02;4.52;;;21.00;47.40;;;15.36;67.78;101129.72;174044;28;1238;-73
2022/05/16 00:09:31;;;;;;;10.70;4.37;;;21.00;47.40;;;15.36;67.64;101130.53;174048;28;1037;-73
2022/05/16 00:09:37;;;;;;;10.62;4.40;;;21.00;47.40;;;15.36;67.86;101130.53;174066;28;1093;-73
2022/05/16 00:09:44;;;;;;;10.60;4.40;;;21.00;47.40;;;15.36;67.95;101127.91;174008;28;1352;-73
2022/05/16 00:09:50;;;;;;;10.32;4.40;;;21.00;47.40;;;15.37;67.80;101134.03;174036;28;1358;-73
2022/05/16 00:09:56;;;;;;;10.13;4.25;;;21.00;47.50;;;15.36;67.68;101133.16;173960;28;1461;-73
2022/05/16 00:10:04;;;;;;;10.82;4.35;;;21.00;47.50;;;15.36;67.73;101130.53;174044;28;918;-72
2022/05/16 00:10:10;;;;;;;11.00;4.33;;;21.00;47.50;;;15.36;67.67;101130.53;174119;28;886;-73
2022/05/16 00:10:16;;;;;;;10.77;4.28;;;21.00;47.40;;;15.36;67.69;101129.72;174000;28;931;-73
2022/05/16 00:10:23;;;;;;;10.65;4.30;;;21.00;47.50;;;15.36;67.82;101130.53;174065;28;965;-73
2022/05/16 00:10:29;;;;;;;10.24;4.32;;;21.00;47.50;;;15.36;67.71;101130.53;174571;28;1225;-73
2022/05/16 00:10:36;;;;;;;10.30;4.40;;;21.00;47.50;;;15.35;67.94;101131.47;174742;28;1049;-73
2022/05/16 00:10:42;;;;;;;9.50;4.60;;;21.00;47.50;;;15.36;67.82;101129.72;174790;28;867;-73
2022/05/16 00:10:48;;;;;;;10.03;4.80;;;21.00;47.50;;;15.35;67.97;101126.22;174744;28;866;-73
2022/05/16 00:10:57;;;;;;;10.43;4.80;;;21.00;47.50;;;15.35;67.90;101122.72;174744;28;933;-73
2022/05/16 00:11:03;;;;;;;11.33;4.77;;;21.00;47.60;;;15.36;67.67;101132.34;174703;28;1100;-73
2022/05/16 00:11:09;;;;;;;11.25;4.72;;;21.00;47.50;;;15.34;67.64;101127.16;174719;28;894;-73
2022/05/16 00:11:14;;;;;;;11.82;4.65;;;21.00;47.50;;;15.34;67.81;101129.78;174715;28;926;-73
2022/05/16 00:11:21;;;;;;;11.93;4.60;;;21.00;47.50;;;15.35;67.77;101130.63;174701;28;906;-73
2022/05/16 00:11:27;;;;;;;12.00;4.68;;;21.00;47.50;;;15.36;67.82;101129.72;174701;28;1021;-73
2022/05/16 00:11:34;;;;;;;11.40;4.68;;;21.00;47.50;;;15.35;67.83;101134.09;174703;28;1033;-73
2022/05/16 00:11:41;;;;;;;11.50;4.63;;;21.00;47.50;;;15.35;67.85;101134.09;174777;28;899;-73
2022/05/16 00:11:46;;;;;;;11.74;4.46;;;20.90;47.50;;;15.35;68.13;101133.25;174710;28;1025;-73
2022/05/16 00:11:52;;;;;;;13.80;4.57;;;21.00;47.50;;;15.34;67.98;101129.78;174705;28;867;-73
2022/05/16 00:11:58;;;;;;;13.77;4.60;;;21.00;47.60;;;15.35;67.90;101128.00;174709;28;1037;-73
2022/05/16 00:12:06;;;;;;;13.48;4.57;;;21.00;47.60;;;15.36;68.00;101137.59;174669;28;1508;-73
2022/05/16 00:12:17;;;;;;;14.40;4.67;;;20.90;47.60;;;15.35;68.04;101120.97;174759;28;1029;-73
2022/05/16 00:12:22;;;;;;;12.40;4.59;;;21.00;47.70;;;15.35;68.29;101134.09;174639;28;1399;-73
2022/05/16 00:12:28;;;;;;;10.30;4.30;;;21.00;47.70;;;15.34;68.07;101135.06;173942;28;876;-73
2022/05/16 00:12:35;;;;;;;10.23;4.20;;;21.00;47.60;;;15.34;68.12;101127.16;174009;28;1096;-73
2022/05/16 00:12:42;;;;;;;9.30;4.00;;;20.90;47.70;;;15.32;68.16;101131.66;174089;28;1073;-73
2022/05/16 00:12:48;;;;;;;9.06;4.10;;;21.00;47.70;;;15.32;67.96;101129.03;174011;28;1073;-73
2022/05/16 00:12:54;;;;;;;9.03;4.13;;;20.90;47.60;;;15.31;67.90;101128.19;173980;28;863;-73
2022/05/16 00:13:01;;;;;;;9.68;4.32;;;20.90;47.60;;;15.33;67.82;101130.75;174017;28;1150;-73
2022/05/16 00:13:07;;;;;;;11.30;4.63;;;21.00;47.60;;;15.31;67.79;101130.81;174026;28;890;-72
2022/05/16 00:13:13;;;;;;;11.20;4.70;;;21.00;47.50;;;15.31;67.91;101125.56;174064;28;1151;-72
2022/05/16 00:13:20;;;;;;;12.23;4.67;;;21.00;47.50;;;15.32;nan;101126.41;174046;28;1065;-73
2022/05/16 00:13:26;;;;;;;14.20;4.74;;;20.90;47.50;;;15.32;67.82;101129.03;174024;28;1022;-73
2022/05/16 00:13:32;;;;;;;13.00;4.50;;;20.90;47.50;;;15.32;67.78;101129.88;174044;28;1006;-73
2022/05/16 00:13:38;;;;;;;13.40;4.40;;;21.00;47.50;;;15.32;67.95;101131.66;174016;28;902;-73
2022/05/16 00:13:44;;;;;;;12.80;4.35;;;20.90;47.60;;;15.32;67.86;101132.50;173248;28;1263;-73
2022/05/16 00:13:49;;;;;;;11.77;4.40;;;21.00;47.60;;;15.31;67.93;101133.44;172558;28;1168;-73
2022/05/16 00:13:55;;;;;;;10.45;4.30;;;20.90;47.60;;;15.32;68.07;101134.28;172668;28;978;-73
2022/05/16 00:14:02;;;;;;;10.33;4.30;;;20.90;47.60;;;15.32;67.95;101129.03;172674;28;848;-73
2022/05/16 00:14:08;;;;;;;11.58;4.30;;;20.90;47.50;;;15.32;67.88;101132.50;172599;28;1054;-73
2022/05/16 00:14:14;;;;;;;12.68;4.30;;;20.90;47.50;;;15.32;67.88;101129.03;172703;28;1005;-73
2022/05/16 00:14:20;;;;;;;12.97;4.30;;;21.00;47.50;;;15.32;67.95;101131.66;172595;28;1354;-73
2022/05/16 00:14:26;;;;;;;13.00;4.30;;;20.90;47.50;;;15.33;67.84;101130.75;172888;28;883;-73
2022/05/16 00:14:33;;;;;;;13.38;4.20;;;20.90;47.50;;;15.33;68.07;101136.00;173321;28;959;-72
2022/05/16 00:14:43;;;;;;;12.05;4.30;;;20.90;47.50;;;15.33;68.10;101130.75;173381;28;895;-73
2022/05/16 00:14:49;;;;;;;11.49;4.35;;;21.00;47.50;;;15.32;68.05;101129.03;172529;28;1439;-73
2022/05/16 00:14:55;;;;;;;11.18;4.40;;;20.90;47.50;;;15.32;67.97;101126.41;172680;28;970;-73
2022/05/16 00:15:04;;;;;;;10.10;4.50;;;20.90;47.60;;;15.31;67.80;101128.19;172684;28;1024;-72
2022/05/16 00:15:15;;;;;;;9.94;4.40;;;20.90;47.50;;;15.30;68.16;101126.47;172684;28;1136;-72
2022/05/16 00:15:24;;;;;;;10.77;4.53;;;20.90;47.60;;;15.29;68.52;101130.06;172649;28;1337;-73
2022/05/16 00:15:31;;;;;;;10.99;4.45;;;20.90;47.70;;;15.30;68.21;101137.00;172627;28;1180;-73
2022/05/16 00:15:37;;;;;;;11.98;4.50;;;21.00;47.70;;;15.30;68.04;101133.53;172665;28;1165;-73
2022/05/16 00:15:43;;;;;;;12.15;4.47;;;20.90;47.70;;;15.29;68.21;101127.41;173075;28;1026;-73
2022/05/16 00:15:49;;;;;;;11.50;4.40;;;20.90;47.70;;;15.30;68.20;101130.91;173363;28;911;-73
2022/05/16 00:15:55;;;;;;;11.90;4.47;;;20.90;47.70;;;15.31;68.16;101132.59;172700;28;922;-73
2022/05/16 00:16:01;;;;;;;11.64;4.48;;;20.90;47.70;;;15.30;68.14;101125.66;171643;28;1774;-73
2022/05/16 00:16:07;;;;;;;10.85;4.50;;;20.90;47.70;;;15.30;68.09;101130.91;172469;28;1324;-73
2022/05/16 00:16:13;;;;;;;10.35;4.57;;;20.90;47.70;;;15.26;68.73;101129.41;172695;28;1084;-73
2022/05/16 00:16:19;;;;;;;11.47;4.47;;;20.90;47.70;;;15.25;68.68;101125.91;173087;28;1058;-73
2022/05/16 00:16:25;;;;;;;11.38;4.43;;;21.00;47.70;;;15.26;68.39;101132.84;172569;28;1065;-72
2022/05/16 00:16:32;;;;;;;12.63;4.43;;;20.90;47.70;;;15.27;68.63;101128.44;172614;28;962;-73
2022/05/16 00:16:39;;;;;;;12.54;4.30;;;20.90;47.80;;;15.27;68.37;101126.69;172552;28;1210;-73
2022/05/16 00:16:45;;;;;;;11.57;4.33;;;20.90;47.80;;;15.28;68.18;101130.13;172684;28;1025;-73
2022/05/16 00:16:51;;;;;;;11.53;4.50;;;20.90;47.80;;;15.28;68.45;101130.13;173350;28;1157;-73
2022/05/16 00:16:57;;;;;;;11.35;4.50;;;20.90;47.80;;;15.28;68.54;101123.09;173351;28;1025;-73
2022/05/16 00:17:03;;;;;;;10.05;4.50;;;20.90;47.80;;;15.28;68.43;101124.88;173333;28;1089;-73
2022/05/16 00:17:09;;;;;;;10.22;4.66;;;20.90;47.80;;;15.28;68.20;101122.25;173321;28;1057;-73
2022/05/16 00:17:16;;;;;;;9.88;4.50;;;20.90;47.80;;;15.28;68.35;101128.38;173364;28;942;-72
2022/05/16 00:17:22;;;;;;;9.20;4.43;;;21.00;47.80;;;15.27;68.34;101126.69;173328;28;1244;-72
2022/05/16 00:17:28;;;;;;;9.55;4.43;;;20.90;47.80;;;15.28;68.30;101127.50;173342;28;1550;-73
2022/05/16 00:17:34;;;;;;;10.40;4.43;;;20.90;47.80;;;15.27;67.94;101125.81;173333;28;914;-73
2022/05/16 00:17:40;;;;;;;10.52;4.32;;;20.90;47.80;;;15.28;68.30;101132.78;173358;28;867;-73
2022/05/16 00:17:47;;;;;;;12.02;4.62;;;20.90;47.70;;;15.27;68.21;101126.69;173235;28;1911;-73
2022/05/16 00:17:53;;;;;;;13.38;4.80;;;20.90;47.70;;;15.28;68.09;101122.25;173334;28;1092;-73
2022/05/16 00:17:59;;;;;;;13.27;4.83;;;20.90;47.70;;;15.27;67.73;101123.19;173361;28;1132;-73
2022/05/16 00:18:06;;;;;;;12.67;4.77;;;20.90;47.70;;;15.27;68.14;101121.41;173353;28;883;-73
2022/05/16 00:18:12;;;;;;;12.85;4.63;;;20.90;47.70;;;15.28;68.12;101127.50;173374;28;964;-73
2022/05/16 00:18:18;;;;;;;12.45;4.40;;;20.90;47.70;;;15.27;68.13;101120.56;173311;28;907;-73
2022/05/16 00:18:24;;;;;;;12.40;4.47;;;20.90;47.70;;;15.28;67.97;101122.25;172858;28;1436;-72
2022/05/16 00:18:30;;;;;;;12.73;4.40;;;20.90;47.70;;;15.28;68.32;101128.38;173316;28;1101;-73
2022/05/16 00:18:36;;;;;;;13.25;4.50;;;20.90;47.70;;;15.28;68.53;101128.38;173403;28;970;-73
2022/05/16 00:18:42;;;;;;;12.10;4.47;;;20.90;47.80;;;15.28;68.41;101132.78;174012;28;1041;-73
2022/05/16 00:18:48;;;;;;;11.60;4.55;;;20.90;47.80;;;15.28;68.24;101122.25;174015;28;1013;-74
2022/05/16 00:18:53;;;;;;;12.25;4.50;;;20.90;47.80;;;15.28;68.32;101130.13;173997;28;974;-73
2022/05/16 00:18:59;;;;;;;12.48;4.60;;;20.90;47.80;;;15.29;68.43;101123.94;174005;28;977;-73
2022/05/16 00:19:06;;;;;;;12.10;4.75;;;20.90;47.80;;;15.28;68.54;101130.13;174007;28;1065;-73
2022/05/16 00:19:12;;;;;;;13.20;4.90;;;20.90;47.80;;;15.28;68.41;101124.88;174064;28;944;-73
2022/05/16 00:19:18;;;;;;;12.78;4.86;;;20.90;47.90;;;15.27;68.46;101120.56;173996;28;1069;-73
2022/05/16 00:19:24;;;;;;;11.57;4.70;;;20.90;47.90;;;15.28;68.74;101127.50;173973;28;1041;-73
2022/05/16 00:19:30;;;;;;;11.60;4.60;;;20.90;48.00;;;15.28;68.75;101122.25;174002;28;1041;-73
2022/05/16 00:19:36;;;;;;;11.40;4.50;;;20.90;48.00;;;15.28;68.65;101123.09;173911;28;1534;-73
2022/05/16 00:19:43;;;;;;;10.80;4.40;;;20.90;48.00;;;15.28;68.51;101119.63;174052;28;843;-73
2022/05/16 00:19:49;;;;;;;10.75;4.32;;;20.90;48.00;;;15.28;68.44;101122.25;174006;28;958;-73
2022/05/16 00:19:54;;;;;;;10.52;4.28;;;20.90;47.90;;;15.27;68.46;101120.56;174006;28;926;-73
2022/05/16 00:20:01;;;;;;;11.27;4.30;;;20.90;47.90;;;15.27;68.53;101123.19;173982;28;946;-72
2022/05/16 00:20:10;;;;;;;11.67;4.23;;;20.90;47.90;;;15.27;68.14;101115.31;174028;28;907;-73
2022/05/16 00:20:17;;;;;;;11.42;4.32;;;20.90;47.80;;;15.27;68.57;101120.56;174002;28;1196;-73
2022/05/16 00:20:23;;;;;;;11.38;4.34;;;20.90;47.90;;;15.27;68.33;101117.94;174370;28;1037;-73
2022/05/16 00:20:29;;;;;;;10.66;4.28;;;20.90;47.90;;;15.28;68.31;101122.25;174719;28;883;-73
2022/05/16 00:20:35;;;;;;;10.60;4.20;;;20.90;47.90;;;15.28;68.43;101122.25;174716;28;887;-73
2022/05/16 00:20:41;;;;;;;10.70;4.20;;;20.90;47.90;;;15.26;68.55;101130.22;174674;28;1110;-73
2022/05/16 00:20:46;;;;;;;10.65;4.20;;;20.90;47.90;;;15.27;68.35;101120.56;174669;28;878;-73
2022/05/16 00:20:52;;;;;;;10.98;4.30;;;20.90;47.90;;;15.27;68.59;101120.56;174700;28;1084;-73
2022/05/16 00:20:58;;;;;;;10.73;4.25;;;20.90;47.90;;;15.27;68.59;101123.19;174731;28;891;-73
2022/05/16 00:21:04;;;;;;;9.57;4.20;;;20.90;47.90;;;15.28;68.53;101127.50;174724;28;1033;-73
2022/05/16 00:21:10;;;;;;;10.70;4.27;;;20.90;47.90;;;15.27;68.55;101120.56;174716;28;1116;-73
2022/05/16 00:21:16;;;;;;;11.27;4.20;;;20.90;47.90;;;15.26;68.58;101124.97;174727;28;1260;-73
2022/05/16 00:21:22;;;;;;;11.30;4.23;;;20.90;47.90;;;15.27;68.34;101120.56;174719;28;1041;-73
2022/05/16 00:21:28;;;;;;;11.14;4.32;;;20.90;47.90;;;15.27;68.74;101117.94;174724;28;1155;-73
2022/05/16 00:21:34;;;;;;;11.20;4.37;;;20.90;48.00;;;15.27;68.55;101120.56;174562;28;1204;-73
2022/05/16 00:21:40;;;;;;;9.45;4.28;;;20.90;48.00;;;15.27;68.58;101121.41;174111;28;918;-73
2022/05/16 00:21:46;;;;;;;9.63;4.25;;;20.90;48.00;;;15.27;68.57;101120.56;173996;28;907;-73
2022/05/16 00:21:52;;;;;;;9.40;4.10;;;20.80;48.00;;;15.27;68.61;101121.41;174032;28;1164;-73
2022/05/16 00:21:59;;;;;;;10.20;4.07;;;20.90;48.00;;;15.26;68.71;101116.25;174025;28;967;-73
2022/05/16 00:22:06;;;;;;;10.95;4.20;;;20.90;48.00;;;15.27;68.71;101120.56;173913;28;1048;-73
2022/05/16 00:22:12;;;;;;;11.77;4.23;;;20.90;48.00;;;15.27;68.71;101116.16;174049;28;992;-72
2022/05/16 00:22:18;;;;;;;11.98;4.25;;;20.90;48.00;;;15.26;68.57;101113.63;174040;28;890;-73
2022/05/16 00:22:26;;;;;;;12.93;4.57;;;20.90;48.00;;;15.25;68.52;101118.03;174029;28;962;-73
2022/05/16 00:22:32;;;;;;;13.36;4.63;;;20.90;48.00;;;15.27;68.75;101120.56;174002;28;1027;-73
2022/05/16 00:22:39;;;;;;;12.35;4.53;;;20.90;48.00;;;15.27;68.70;101115.31;174028;28;935;-73
2022/05/16 00:22:44;;;;;;;11.97;4.67;;;20.90;48.10;;;15.27;68.69;101112.69;174016;28;942;-73
2022/05/16 00:22:50;;;;;;;11.55;4.63;;;20.80;48.00;;;15.27;68.71;101120.56;173974;28;856;-73
2022/05/16 00:22:56;;;;;;;10.65;4.55;;;20.90;48.00;;;15.25;68.48;101114.53;173995;28;989;-73
2022/05/16 00:23:02;;;;;;;10.55;4.63;;;20.90;48.00;;;15.26;68.47;101113.63;174017;28;910;-73
2022/05/16 00:23:08;;;;;;;10.88;4.72;;;20.90;47.90;;;15.26;68.24;101117.06;173260;28;919;-73
2022/05/16 00:23:14;;;;;;;11.35;4.68;;;20.90;47.90;;;15.26;68.11;101109.19;173385;28;1220;-73
2022/05/16 00:23:20;;;;;;;11.70;4.63;;;20.80;47.90;;;15.26;68.21;101124.13;173343;28;1050;-72
2022/05/16 00:23:26;;;;;;;10.98;4.50;;;20.90;47.90;;;15.26;68.33;101113.63;172568;28;1821;-72
2022/05/16 00:23:32;;;;;;;10.97;4.50;;;20.90;47.80;;;15.25;68.26;101114.53;172667;28;1097;-73
2022/05/16 00:23:37;;;;;;;12.80;4.50;;;20.80;47.80;;;15.26;68.22;101114.44;172639;28;852;-72
2022/05/16 00:23:44;;;;;;;12.77;4.60;;;20.90;47.80;;;15.26;68.20;101121.50;172682;28;903;-72
2022/05/16 00:23:49;;;;;;;13.45;4.60;;;20.80;47.80;;;15.26;68.15;101113.63;172657;28;962;-74
2022/05/16 00:23:55;;;;;;;14.25;4.70;;;20.90;47.80;;;15.25;68.25;101117.16;172663;28;880;-74
2022/05/16 00:24:02;;;;;;;14.10;4.55;;;20.90;47.80;;;15.26;68.29;101118.88;172735;28;922;-73
2022/05/16 00:24:07;;;;;;;13.40;4.37;;;20.90;47.80;;;15.24;68.51;101118.09;173353;28;950;-73
2022/05/16 00:24:13;;;;;;;14.05;4.30;;;20.90;47.80;;;15.23;68.37;101117.28;173394;28;1203;-73
2022/05/16 00:24:24;;;;;;;12.68;4.38;;;20.80;47.80;;;15.23;68.17;101114.66;173317;28;1316;-73
2022/05/16 00:24:29;;;;;;;12.55;4.35;;;20.80;47.80;;;15.24;68.35;101121.59;173320;28;1168;-73
2022/05/16 00:24:40;;;;;;;12.95;4.57;;;20.80;47.80;;;15.24;68.49;101115.47;173332;28;1026;-73
2022/05/16 00:24:45;;;;;;;11.53;4.64;;;20.90;47.80;;;15.24;68.28;101113.72;173310;28;1246;-73
2022/05/16 00:24:52;;;;;;;11.50;4.63;;;20.90;47.80;;;15.25;68.27;101111.91;173215;28;1367;-73
2022/05/16 00:24:58;;;;;;;12.00;4.90;;;20.80;47.80;;;15.25;68.17;101114.53;173221;28;910;-73
2022/05/16 00:25:15;;;;;;;11.10;4.77;;;20.90;47.80;;;15.25;68.39;101118.03;173367;28;840;-73
2022/05/16 00:25:21;;;;;;;11.39;4.54;;;20.90;47.90;;;15.22;68.65;101112.94;173987;28;1440;-73
2022/05/16 00:25:27;;;;;;;11.60;4.20;;;20.80;47.90;;;15.21;68.42;101119.13;174075;28;875;-73
2022/05/16 00:25:33;;;;;;;12.25;4.22;;;20.80;47.80;;;15.23;68.27;101100.66;174067;28;1013;-72
2022/05/16 00:25:38;;;;;;;13.15;4.28;;;20.80;47.80;;;15.22;68.31;101118.19;174074;28;907;-73
2022/05/16 00:25:44;;;;;;;13.30;4.30;;;20.80;47.80;;;15.23;68.39;101119.06;174099;28;918;-72
2022/05/16 00:25:50;;;;;;;12.60;4.25;;;20.80;47.80;;;15.23;68.31;101114.66;174078;28;1286;-73
2022/05/16 00:25:56;;;;;;;11.50;4.18;;;20.80;47.80;;;15.24;68.48;101112.84;174050;28;977;-73
2022/05/16 00:26:02;;;;;;;10.07;4.05;;;20.80;47.80;;;15.24;68.50;101115.47;174071;28;974;-72
2022/05/16 00:26:08;;;;;;;10.65;4.22;;;20.80;47.80;;;15.23;68.28;101113.78;173923;28;2332;-72
2022/05/16 00:26:14;;;;;;;11.38;4.47;;;20.80;47.80;;;15.22;68.39;101115.56;174060;28;973;-72
2022/05/16 00:26:20;;;;;;;10.82;4.43;;;20.80;47.90;;;15.21;68.56;101110.41;174033;28;911;-73
2022/05/16 00:26:26;;;;;;;11.27;4.50;;;20.90;47.90;;;15.16;68.78;101111.50;174021;28;1037;-73
2022/05/16 00:26:34;;;;;;;11.87;4.60;;;20.90;47.90;;;15.16;68.67;101114.13;174021;28;922;-72
2022/05/16 00:26:39;;;;;;;10.53;4.50;;;20.80;47.90;;;15.17;68.74;101110.59;174012;28;1080;-72
2022/05/16 00:26:45;;;;;;;10.07;4.43;;;20.80;47.80;;;15.18;68.50;101112.28;174005;28;851;-73
2022/05/16 00:26:51;;;;;;;10.48;4.57;;;20.80;47.80;;;15.18;68.39;101114.91;174025;28;1084;-72
2022/05/16 00:27:01;;;;;;;10.07;4.60;;;20.80;47.80;;;15.19;68.62;101111.34;173149;28;1691;-72
2022/05/16 00:27:07;;;;;;;9.70;4.47;;;20.80;47.80;;;15.21;68.33;101110.41;172638;28;1246;-73
2022/05/16 00:27:13;;;;;;;9.05;4.32;;;20.80;47.80;;;15.21;68.32;101110.41;172734;28;960;-73
2022/05/16 00:27:19;;;;;;;9.25;4.28;;;20.80;47.80;;;15.21;68.33;101110.41;172670;28;889;-74
2022/05/16 00:27:25;;;;;;;9.37;4.27;;;20.80;47.80;;;15.21;68.44;101115.66;172681;28;1124;-73